createdAt,value
2019-04-03T00:01:04.135Z,101673.72
2019-04-03T00:03:34.241Z,101673.02
2019-04-03T00:06:06.056Z,101665.99
2019-04-03T00:08:37.075Z,101667.58
2019-04-03T00:11:09.491Z,101666.40
2019-04-03T00:13:42.228Z,101664.92
2019-04-03T00:16:12.092Z,101665.73
2019-04-03T00:18:42.743Z,101667.09
2019-04-03T00:21:13.390Z,101668.60
2019-04-03T00:23:43.453Z,101659.26
2019-04-03T00:26:13.878Z,101659.61
2019-04-03T00:28:43.828Z,101668.64
2019-04-03T00:31:14.240Z,101662.65
2019-04-03T00:33:44.911Z,101661.98
2019-04-03T00:36:15.689Z,101660.42
2019-04-03T00:38:46.314Z,101655.19
2019-04-03T00:41:16.279Z,101649.31
2019-04-03T00:43:46.679Z,101654.59
2019-04-03T00:46:17.232Z,101652.81
2019-04-03T00:48:47.799Z,101655.19
2019-04-03T00:51:17.858Z,101651.41
2019-04-03T00:53:48.519Z,101654.53
2019-04-03T00:56:18.451Z,101652.14
2019-04-03T00:58:48.898Z,101653.76
2019-04-03T01:01:19.624Z,101655.06
2019-04-03T01:03:50.278Z,101655.34
2019-04-03T01:06:21.009Z,101666.03
2019-04-03T01:08:51.781Z,101653.80
2019-04-03T01:11:22.025Z,101654.45
2019-04-03T01:13:52.760Z,101656.24
2019-04-03T01:16:23.536Z,101661.50
2019-04-03T01:18:54.179Z,101659.55
2019-04-03T01:21:24.183Z,101658.27
2019-04-03T01:23:54.750Z,101669.02
2019-04-03T01:26:25.509Z,101662.17
2019-04-03T01:28:56.714Z,101661.95
2019-04-03T01:31:27.234Z,101663.55
2019-04-03T01:33:57.767Z,101668.05
2019-04-03T01:36:28.543Z,101664.72
2019-04-03T01:38:59.394Z,101668.67
2019-04-03T01:41:29.930Z,101660.20
2019-04-03T01:44:00.006Z,101662.46
2019-04-03T01:46:30.514Z,101667.80
2019-04-03T01:49:00.593Z,101669.38
2019-04-03T01:51:31.002Z,101665.38
2019-04-03T01:54:02.301Z,101659.77
2019-04-03T01:56:33.846Z,101663.39
2019-04-03T01:59:06.654Z,101660.48
2019-04-03T02:01:38.715Z,101656.25
2019-04-03T02:04:12.110Z,101657.63
2019-04-03T02:06:43.125Z,101653.21
2019-04-03T02:09:15.596Z,101660.54
2019-04-03T02:11:47.604Z,101653.02
2019-04-03T02:14:21.278Z,101654.98
2019-04-03T02:16:53.203Z,101661.41
2019-04-03T02:19:25.738Z,101660.84
2019-04-03T02:21:54.585Z,101662.30
2019-04-03T02:24:24.647Z,101667.58
2019-04-03T02:26:55.172Z,101661.22
2019-04-03T02:29:26.884Z,101660.66
2019-04-03T02:31:57.704Z,101665.13
2019-04-03T02:34:28.356Z,101663.48
2019-04-03T02:36:59.418Z,101661.68
2019-04-03T02:39:30.173Z,101663.75
2019-04-03T02:42:00.819Z,101659.16
2019-04-03T02:44:31.474Z,101658.30
2019-04-03T02:47:02.208Z,101653.48
2019-04-03T02:49:32.968Z,101658.62
2019-04-03T02:52:03.734Z,101658.75
2019-04-03T02:54:35.499Z,101660.78
2019-04-03T02:57:07.017Z,101661.03
2019-04-03T02:59:38.044Z,101661.91
2019-04-03T03:02:11.272Z,101659.45
2019-04-03T03:04:39.867Z,101660.99
2019-04-03T03:07:10.610Z,101660.48
2019-04-03T03:09:45.675Z,101662.23
2019-04-03T03:12:13.538Z,101654.27
2019-04-03T03:14:44.204Z,101655.74
2019-04-03T03:17:15.058Z,101660.92
2019-04-03T03:19:46.099Z,101657.61
2019-04-03T03:22:18.082Z,101666.00
2019-04-03T03:24:49.876Z,101657.48
2019-04-03T03:27:20.713Z,101666.78
2019-04-03T03:29:52.506Z,101660.92
2019-04-03T03:32:31.366Z,101665.81
2019-04-03T03:35:07.611Z,101665.60
2019-04-03T03:37:27.856Z,101658.99
2019-04-03T03:39:58.591Z,101666.59
2019-04-03T03:42:31.306Z,101663.66
2019-04-03T03:45:01.580Z,101663.20
2019-04-03T03:47:35.101Z,101664.33
2019-04-03T03:50:07.400Z,101666.64
2019-04-03T03:52:38.648Z,101673.62
2019-04-03T03:55:09.454Z,101666.96
2019-04-03T03:57:40.568Z,101674.64
2019-04-03T04:00:11.371Z,101674.30
2019-04-03T04:02:44.566Z,101674.33
2019-04-03T04:05:14.341Z,101675.41
2019-04-03T04:07:45.366Z,101676.62
2019-04-03T04:10:16.415Z,101679.39
2019-04-03T04:12:47.587Z,101671.75
2019-04-03T04:15:18.453Z,101679.66
2019-04-03T04:17:51.318Z,101681.28
2019-04-03T04:20:22.132Z,101679.12
2019-04-03T04:22:53.112Z,101681.90
2019-04-03T04:25:23.904Z,101685.86
2019-04-03T04:27:54.674Z,101681.80
2019-04-03T04:30:26.231Z,101679.80
2019-04-03T04:32:57.100Z,101677.09
2019-04-03T04:35:27.959Z,101678.44
2019-04-03T04:37:58.793Z,101675.37
2019-04-03T04:40:31.312Z,101672.30
2019-04-03T04:43:03.764Z,101673.42
2019-04-03T04:45:33.961Z,101678.39
2019-04-03T04:48:04.705Z,101679.42
2019-04-03T04:50:35.457Z,101673.27
2019-04-03T04:53:06.098Z,101668.64
2019-04-03T04:55:36.370Z,101667.97
2019-04-03T04:58:06.869Z,101666.40
2019-04-03T05:00:37.158Z,101666.05
2019-04-03T05:03:07.825Z,101670.84
2019-04-03T05:05:38.520Z,101667.39
2019-04-03T05:08:09.270Z,101671.05
2019-04-03T05:10:40.042Z,101667.70
2019-04-03T05:13:10.797Z,101669.06
2019-04-03T05:15:41.717Z,101666.59
2019-04-03T05:18:12.609Z,101669.55
2019-04-03T05:20:43.345Z,101663.63
2019-04-03T05:23:13.216Z,101664.95
2019-04-03T05:25:44.037Z,101665.27
2019-04-03T05:28:14.501Z,101665.95
2019-04-03T05:30:46.381Z,101662.38
2019-04-03T05:33:17.183Z,101667.52
2019-04-03T05:35:47.888Z,101661.82
2019-04-03T05:38:17.837Z,101658.08
2019-04-03T05:40:48.382Z,101651.91
2019-04-03T05:43:18.437Z,101651.91
2019-04-03T05:45:48.804Z,101653.95
2019-04-03T05:48:19.411Z,101659.56
2019-04-03T05:50:49.573Z,101654.06
2019-04-03T05:53:20.246Z,101648.42
2019-04-03T05:55:50.837Z,101660.64
2019-04-03T05:58:21.927Z,101653.02
2019-04-03T06:01:03.639Z,101650.70
2019-04-03T06:03:37.562Z,101656.64
2019-04-03T06:05:58.059Z,101654.03
2019-04-03T06:08:28.487Z,101653.64
2019-04-03T06:10:58.466Z,101656.70
2019-04-03T06:13:28.787Z,101652.68
2019-04-03T06:15:58.845Z,101639.80
2019-04-03T06:18:31.671Z,101653.45
2019-04-03T06:21:01.659Z,101652.05
2019-04-03T06:23:32.314Z,101657.08
2019-04-03T06:26:02.979Z,101648.24
2019-04-03T06:28:33.127Z,101643.58
2019-04-03T06:31:04.983Z,101645.91
2019-04-03T06:33:37.154Z,101646.63
2019-04-03T06:36:07.604Z,101643.17
2019-04-03T06:38:38.351Z,101647.67
2019-04-03T06:41:09.252Z,101646.87
2019-04-03T06:43:40.180Z,101649.43
2019-04-03T06:46:10.142Z,101653.00
2019-04-03T06:48:40.983Z,101659.81
2019-04-03T06:51:11.651Z,101655.84
2019-04-03T06:53:42.443Z,101658.98
2019-04-03T06:56:13.030Z,101654.02
2019-04-03T06:58:44.373Z,101653.19
2019-04-03T07:01:14.948Z,101652.47
2019-04-03T07:03:45.009Z,101649.51
2019-04-03T07:06:15.417Z,101655.34
2019-04-03T07:08:47.600Z,101653.80
2019-04-03T07:11:23.539Z,101652.45
2019-04-03T07:13:49.942Z,101641.56
2019-04-03T07:16:19.894Z,101653.10
2019-04-03T07:18:50.311Z,101653.81
2019-04-03T07:21:22.818Z,101648.48
2019-04-03T07:23:53.892Z,101652.91
2019-04-03T07:26:24.151Z,101652.07
2019-04-03T07:28:54.770Z,101648.50
2019-04-03T07:31:25.861Z,101638.16
2019-04-03T07:33:58.158Z,101638.46
2019-04-03T07:36:28.551Z,101644.55
2019-04-03T07:38:59.327Z,101634.31
2019-04-03T07:41:29.975Z,101637.45
2019-04-03T07:44:00.040Z,101635.06
2019-04-03T07:46:32.855Z,101640.03
2019-04-03T07:49:02.522Z,101638.46
2019-04-03T07:51:32.504Z,101627.78
2019-04-03T07:54:04.751Z,101626.62
2019-04-03T07:56:35.194Z,101616.91
2019-04-03T07:59:05.173Z,101624.20
2019-04-03T08:01:35.899Z,101628.69
2019-04-03T08:04:06.596Z,101623.37
2019-04-03T08:06:37.289Z,101620.36
2019-04-03T08:09:09.750Z,101610.92
2019-04-03T08:11:39.941Z,101616.52
2019-04-03T08:14:10.590Z,101620.52
2019-04-03T08:16:42.676Z,101615.94
2019-04-03T08:19:13.282Z,101614.54
2019-04-03T08:21:43.981Z,101608.70
2019-04-03T08:24:13.988Z,101595.90
2019-04-03T08:26:44.955Z,101583.20
2019-04-03T08:29:15.426Z,101589.59
2019-04-03T08:31:48.353Z,101599.47
2019-04-03T08:34:18.699Z,101597.56
2019-04-03T08:36:49.214Z,101591.16
2019-04-03T08:39:19.253Z,101592.06
2019-04-03T08:41:50.009Z,101557.59
2019-04-03T08:44:20.245Z,101592.89
2019-04-03T08:46:50.970Z,101589.20
2019-04-03T08:49:21.433Z,101584.92
2019-04-03T08:51:52.387Z,101589.06
2019-04-03T08:54:23.069Z,101582.83
2019-04-03T08:56:53.717Z,101573.23
2019-04-03T08:59:23.758Z,101588.66
2019-04-03T09:01:56.011Z,101586.34
2019-04-03T09:04:26.368Z,101590.77
2019-04-03T09:06:57.040Z,101587.08
2019-04-03T09:09:29.893Z,101579.91
2019-04-03T09:11:59.649Z,101564.75
2019-04-03T09:14:29.731Z,101582.80
2019-04-03T09:17:02.269Z,101579.11
2019-04-03T09:19:32.607Z,101569.31
2019-04-03T09:22:03.380Z,101567.34
2019-04-03T09:24:33.929Z,101560.59
2019-04-03T09:27:04.285Z,101560.86
2019-04-03T09:29:35.318Z,101562.59
2019-04-03T09:32:06.856Z,101575.84
2019-04-03T09:34:37.271Z,101581.50
2019-04-03T09:37:08.023Z,101580.02
2019-04-03T09:39:39.081Z,101586.36
2019-04-03T09:42:09.738Z,101570.97
2019-04-03T09:44:40.810Z,101566.75
2019-04-03T09:47:14.294Z,101570.56
2019-04-03T09:49:45.474Z,101569.55
2019-04-03T09:52:16.149Z,101573.25
2019-04-03T09:54:46.777Z,101576.92
2019-04-03T09:57:17.308Z,101572.04
2019-04-03T09:59:47.387Z,101572.37
2019-04-03T10:02:19.602Z,101577.14
2019-04-03T10:04:52.146Z,101576.13
2019-04-03T10:07:22.982Z,101571.82
2019-04-03T10:09:54.531Z,101566.52
2019-04-03T10:12:25.223Z,101575.66
2019-04-03T10:14:55.203Z,101555.02
2019-04-03T10:17:25.709Z,101563.66
2019-04-03T10:19:56.707Z,101570.27
2019-04-03T10:22:27.521Z,101560.83
2019-04-03T10:25:00.186Z,101565.16
2019-04-03T10:27:29.217Z,101561.89
2019-04-03T10:29:59.806Z,101553.47
2019-04-03T10:32:31.692Z,101554.52
2019-04-03T10:35:02.440Z,101550.25
2019-04-03T10:37:35.932Z,101558.92
2019-04-03T10:40:07.576Z,101545.85
2019-04-03T10:42:38.097Z,101548.30
2019-04-03T10:45:11.013Z,101541.83
2019-04-03T10:47:44.183Z,101544.59
2019-04-03T10:50:14.108Z,101533.16
2019-04-03T10:52:47.677Z,101541.00
2019-04-03T10:55:17.040Z,101533.84
2019-04-03T10:57:47.365Z,101534.84
2019-04-03T11:00:17.777Z,101524.09
2019-04-03T11:02:48.702Z,101516.05
2019-04-03T11:05:19.404Z,101518.17
2019-04-03T11:07:50.255Z,101511.58
2019-04-03T11:10:23.356Z,101507.96
2019-04-03T11:12:53.030Z,101522.66
2019-04-03T11:15:23.991Z,101499.81
2019-04-03T11:17:54.877Z,101494.66
2019-04-03T11:20:25.599Z,101496.38
2019-04-03T11:23:05.391Z,101499.44
2019-04-03T11:25:28.844Z,101488.09
2019-04-03T11:27:59.803Z,101495.23
2019-04-03T11:30:30.659Z,101494.64
2019-04-03T11:33:02.693Z,101480.27
2019-04-03T11:35:33.939Z,101473.80
2019-04-03T11:38:13.183Z,101477.16
2019-04-03T11:40:36.850Z,101482.33
2019-04-03T11:43:07.808Z,101475.52
2019-04-03T11:45:38.582Z,101464.37
2019-04-03T11:48:09.212Z,101474.58
2019-04-03T11:50:40.269Z,101471.94
2019-04-03T11:53:12.762Z,101470.01
2019-04-03T11:55:43.236Z,101461.86
2019-04-03T11:58:13.967Z,101458.80
2019-04-03T12:00:46.456Z,101450.89
2019-04-03T12:03:17.669Z,101448.53
2019-04-03T12:05:48.367Z,101450.50
2019-04-03T12:08:19.625Z,101457.53
2019-04-03T12:10:50.395Z,101459.53
2019-04-03T12:13:22.844Z,101453.20
2019-04-03T12:15:56.207Z,101449.25
2019-04-03T12:18:25.723Z,101451.66
2019-04-03T12:20:56.659Z,101459.44
2019-04-03T12:23:27.823Z,101446.41
2019-04-03T12:25:58.699Z,101446.12
2019-04-03T12:28:29.488Z,101450.19
2019-04-03T12:31:00.341Z,101461.69
2019-04-03T12:33:31.461Z,101448.42
2019-04-03T12:36:02.130Z,101428.93
2019-04-03T12:38:33.056Z,101442.23
2019-04-03T12:41:04.972Z,101437.91
2019-04-03T12:43:36.179Z,101437.44
2019-04-03T12:46:07.323Z,101451.73
2019-04-03T12:48:38.148Z,101446.89
2019-04-03T12:51:09.063Z,101447.89
2019-04-03T12:53:39.648Z,101437.52
2019-04-03T12:56:10.807Z,101454.03
2019-04-03T12:58:42.008Z,101446.31
2019-04-03T13:01:12.730Z,101437.44
2019-04-03T13:03:44.001Z,101450.70
2019-04-03T13:06:14.927Z,101438.76
2019-04-03T13:08:46.307Z,101446.34
2019-04-03T13:11:18.593Z,101453.50
2019-04-03T13:13:49.304Z,101455.86
2019-04-03T13:16:22.365Z,101464.62
2019-04-03T13:18:52.195Z,101455.52
2019-04-03T13:21:22.849Z,101460.14
2019-04-03T13:23:52.951Z,101455.44
2019-04-03T13:26:24.760Z,101463.13
2019-04-03T13:28:55.708Z,101456.12
2019-04-03T13:31:26.482Z,101456.80
2019-04-03T13:33:58.038Z,101459.45
2019-04-03T13:36:32.474Z,101450.49
2019-04-03T13:39:01.643Z,101450.34
2019-04-03T13:41:34.709Z,101449.48
2019-04-03T13:44:04.748Z,101459.13
2019-04-03T13:46:36.516Z,101460.05
2019-04-03T13:49:08.305Z,101450.58
2019-04-03T13:51:39.558Z,101450.58
2019-04-03T13:54:10.465Z,101446.63
2019-04-03T13:56:43.158Z,101452.80
2019-04-03T13:59:13.259Z,101455.74
2019-04-03T14:01:44.158Z,101459.42
2019-04-03T14:04:15.075Z,101457.92
2019-04-03T14:06:46.177Z,101467.06
2019-04-03T14:09:17.604Z,101468.52
2019-04-03T14:11:48.244Z,101465.62
2019-04-03T14:14:18.319Z,101463.67
2019-04-03T14:16:48.875Z,101470.84
2019-04-03T14:19:19.902Z,101472.66
2019-04-03T14:21:50.760Z,101470.87
2019-04-03T14:24:21.535Z,101475.84
2019-04-03T14:26:51.946Z,101467.06
2019-04-03T14:29:22.799Z,101472.34
2019-04-03T14:31:54.038Z,101460.41
2019-04-03T14:34:29.279Z,101458.96
2019-04-03T14:36:58.368Z,101467.95
2019-04-03T14:39:29.679Z,101464.79
2019-04-03T14:42:01.292Z,101464.77
2019-04-03T14:44:32.128Z,101469.58
2019-04-03T14:47:02.799Z,101469.20
2019-04-03T14:49:33.580Z,101475.28
2019-04-03T14:52:04.143Z,101470.45
2019-04-03T14:54:34.855Z,101483.56
2019-04-03T14:57:13.194Z,101483.45
2019-04-03T14:59:37.557Z,101479.73
2019-04-03T15:02:08.344Z,101481.58
2019-04-03T15:04:39.363Z,101479.12
2019-04-03T15:07:10.329Z,101473.62
2019-04-03T15:09:41.324Z,101478.72
2019-04-03T15:12:12.957Z,101472.27
2019-04-03T15:14:43.426Z,101471.50
2019-04-03T15:17:13.504Z,101467.02
2019-04-03T15:19:45.313Z,101475.16
2019-04-03T15:22:15.890Z,101474.20
2019-04-03T15:24:45.867Z,101464.70
2019-04-03T15:27:16.868Z,101465.02
2019-04-03T15:29:47.441Z,101469.50
2019-04-03T15:32:19.826Z,101473.83
2019-04-03T15:34:51.317Z,101465.23
2019-04-03T15:37:22.172Z,101471.72
2019-04-03T15:39:56.930Z,101471.56
2019-04-03T15:42:24.808Z,101473.75
2019-04-03T15:44:57.116Z,101476.39
2019-04-03T15:47:35.280Z,101476.09
2019-04-03T15:49:59.973Z,101477.52
2019-04-03T15:52:30.770Z,101479.36
2019-04-03T15:55:03.613Z,101474.92
2019-04-03T15:57:33.087Z,101479.08
2019-04-03T16:00:06.503Z,101489.20
2019-04-03T16:02:37.365Z,101488.28
2019-04-03T16:05:08.503Z,101494.39
2019-04-03T16:07:41.454Z,101492.86
2019-04-03T16:10:11.748Z,101502.66
2019-04-03T16:12:43.499Z,101500.80
2019-04-03T16:15:15.423Z,101505.50
2019-04-03T16:17:45.774Z,101506.99
2019-04-03T16:20:16.990Z,101510.79
2019-04-03T16:22:48.231Z,101506.47
2019-04-03T16:25:18.977Z,101512.25
2019-04-03T16:27:49.806Z,101520.17
2019-04-03T16:30:20.639Z,101528.08
2019-04-03T16:32:52.242Z,101522.03
2019-04-03T16:35:24.305Z,101528.52
2019-04-03T16:37:56.664Z,101527.12
2019-04-03T16:40:27.258Z,101525.09
2019-04-03T16:42:57.811Z,101533.70
2019-04-03T16:45:28.032Z,101535.50
2019-04-03T16:47:58.601Z,101537.80
2019-04-03T16:50:28.751Z,101545.08
2019-04-03T16:52:59.515Z,101546.86
2019-04-03T16:55:30.044Z,101553.64
2019-04-03T16:58:01.019Z,101548.23
2019-04-03T17:00:31.658Z,101548.13
2019-04-03T17:03:02.157Z,101550.40
2019-04-03T17:05:32.856Z,101553.38
2019-04-03T17:08:02.936Z,101548.16
2019-04-03T17:10:33.459Z,101558.72
2019-04-03T17:13:03.520Z,101549.70
2019-04-03T17:15:35.383Z,101550.42
2019-04-03T17:18:06.234Z,101560.04
2019-04-03T17:20:36.597Z,101555.37
2019-04-03T17:23:07.727Z,101562.89
2019-04-03T17:25:47.620Z,101565.02
2019-04-03T17:28:11.807Z,101561.03
2019-04-03T17:30:45.877Z,101567.78
2019-04-03T17:33:16.978Z,101570.36
2019-04-03T17:35:48.438Z,101570.75
2019-04-03T17:38:21.961Z,101571.64
2019-04-03T17:40:52.838Z,101575.33
2019-04-03T17:43:23.589Z,101573.79
2019-04-03T17:45:53.651Z,101583.92
2019-04-03T17:48:24.801Z,101578.48
2019-04-03T17:50:55.733Z,101575.26
2019-04-03T17:53:26.382Z,101572.70
2019-04-03T17:55:56.357Z,101572.69
2019-04-03T17:58:26.869Z,101569.73
2019-04-03T18:00:57.726Z,101573.46
2019-04-03T18:03:28.071Z,101561.12
2019-04-03T18:05:58.248Z,101566.95
2019-04-03T18:08:28.761Z,101567.98
2019-04-03T18:10:59.573Z,101560.22
2019-04-03T18:13:30.496Z,101562.89
2019-04-03T18:16:01.245Z,101566.08
2019-04-03T18:18:33.497Z,101561.63
2019-04-03T18:21:04.180Z,101558.79
2019-04-03T18:23:35.056Z,101562.41
2019-04-03T18:26:05.878Z,101559.56
2019-04-03T18:28:36.647Z,101555.52
2019-04-03T18:31:07.449Z,101555.48
2019-04-03T18:33:38.259Z,101561.19
2019-04-03T18:36:10.042Z,101562.33
2019-04-03T18:38:40.995Z,101562.36
2019-04-03T18:41:11.728Z,101575.53
2019-04-03T18:43:43.505Z,101570.19
2019-04-03T18:46:13.470Z,101567.66
2019-04-03T18:48:53.176Z,101572.02
2019-04-03T18:51:16.073Z,101571.45
2019-04-03T18:53:46.897Z,101563.24
2019-04-03T18:56:16.702Z,101565.00
2019-04-03T18:58:47.224Z,101565.22
2019-04-03T19:01:17.308Z,101567.56
2019-04-03T19:03:47.916Z,101560.77
2019-04-03T19:06:18.078Z,101574.10
2019-04-03T19:08:50.130Z,101575.92
2019-04-03T19:11:20.567Z,101570.16
2019-04-03T19:13:50.748Z,101570.34
2019-04-03T19:16:29.323Z,101569.34
2019-04-03T19:18:53.256Z,101574.73
2019-04-03T19:21:28.270Z,101566.24
2019-04-03T19:23:56.299Z,101566.83
2019-04-03T19:26:30.048Z,101566.33
2019-04-03T19:29:00.770Z,101568.82
2019-04-03T19:31:31.551Z,101557.65
2019-04-03T19:34:01.525Z,101558.89
2019-04-03T19:36:33.037Z,101561.25
2019-04-03T19:39:06.636Z,101558.28
2019-04-03T19:41:37.489Z,101561.35
2019-04-03T19:44:07.464Z,101565.30
2019-04-03T19:46:37.975Z,101561.76
2019-04-03T19:49:08.746Z,101565.36
2019-04-03T19:51:39.626Z,101568.08
2019-04-03T19:54:10.473Z,101561.20
2019-04-03T19:56:41.214Z,101567.93
2019-04-03T19:59:11.868Z,101570.04
2019-04-03T20:01:42.718Z,101565.86
2019-04-03T20:04:15.680Z,101567.22
2019-04-03T20:06:45.555Z,101560.14
2019-04-03T20:09:17.799Z,101563.34
2019-04-03T20:11:48.598Z,101562.50
2019-04-03T20:14:19.333Z,101566.31
2019-04-03T20:16:50.107Z,101572.41
2019-04-03T20:19:21.455Z,101569.80
2019-04-03T20:21:52.021Z,101580.14
2019-04-03T20:24:25.043Z,101575.84
2019-04-03T20:26:54.862Z,101579.09
2019-04-03T20:29:27.523Z,101577.27
2019-04-03T20:31:58.208Z,101572.86
2019-04-03T20:34:28.964Z,101568.91
2019-04-03T20:37:00.515Z,101568.66
2019-04-03T20:39:33.792Z,101573.59
2019-04-03T20:42:03.665Z,101571.52
2019-04-03T20:44:38.556Z,101569.84
2019-04-03T20:47:07.725Z,101567.86
2019-04-03T20:49:38.599Z,101567.67
2019-04-03T20:52:11.511Z,101562.28
2019-04-03T20:54:41.842Z,101560.55
2019-04-03T20:57:13.553Z,101568.36
2019-04-03T20:59:57.691Z,101565.28
2019-04-03T21:02:16.757Z,101563.28
2019-04-03T21:04:47.418Z,101565.72
2019-04-03T21:07:18.269Z,101565.36
2019-04-03T21:09:49.108Z,101566.79
2019-04-03T21:12:19.879Z,101564.65
2019-04-03T21:14:49.941Z,101561.77
2019-04-03T21:17:20.467Z,101562.80
2019-04-03T21:19:52.212Z,101561.25
2019-04-03T21:22:22.488Z,101561.08
2019-04-03T21:24:53.124Z,101562.70
2019-04-03T21:27:23.300Z,101566.20
2019-04-03T21:29:53.812Z,101562.58
2019-04-03T21:32:23.888Z,101551.47
2019-04-03T21:34:54.428Z,101557.11
2019-04-03T21:37:25.985Z,101555.91
2019-04-03T21:39:56.925Z,101554.23
2019-04-03T21:42:27.800Z,101555.31
2019-04-03T21:44:58.663Z,101555.27
2019-04-03T21:47:29.292Z,101558.64
2019-04-03T21:50:00.045Z,101553.62
2019-04-03T21:52:30.695Z,101552.41
2019-04-03T21:55:04.602Z,101557.93
2019-04-03T21:57:34.061Z,101551.14
2019-04-03T22:00:09.111Z,101551.28
2019-04-03T22:02:39.968Z,101545.80
2019-04-03T22:05:10.517Z,101547.77
2019-04-03T22:07:41.372Z,101553.48
2019-04-03T22:10:12.125Z,101541.98
2019-04-03T22:12:42.800Z,101547.81
2019-04-03T22:15:14.511Z,101547.39
2019-04-03T22:17:45.193Z,101548.87
2019-04-03T22:20:16.061Z,101549.48
2019-04-03T22:22:46.814Z,101552.19
2019-04-03T22:25:17.463Z,101548.19
2019-04-03T22:27:48.202Z,101544.76
2019-04-03T22:30:19.999Z,101548.22
2019-04-03T22:32:51.141Z,101540.16
2019-04-03T22:35:21.913Z,101535.31
2019-04-03T22:37:54.893Z,101539.20
2019-04-03T22:40:25.655Z,101547.36
2019-04-03T22:43:02.338Z,101548.28
2019-04-03T22:45:32.904Z,101543.94
2019-04-03T22:48:03.761Z,101545.84
2019-04-03T22:50:35.336Z,101543.94
2019-04-03T22:53:06.296Z,101544.17
2019-04-03T22:55:38.160Z,101539.38
2019-04-03T22:58:08.926Z,101547.36
2019-04-03T23:00:39.680Z,101534.91
2019-04-03T23:03:10.209Z,101538.45
2019-04-03T23:05:41.082Z,101537.82
2019-04-03T23:08:12.044Z,101536.78
2019-04-03T23:10:42.680Z,101535.84
2019-04-03T23:13:12.757Z,101536.55
2019-04-03T23:15:43.265Z,101531.41
2019-04-03T23:18:15.883Z,101537.57
2019-04-03T23:20:46.201Z,101537.63
2019-04-03T23:23:17.074Z,101522.50
2019-04-03T23:25:47.830Z,101525.94
2019-04-03T23:28:18.481Z,101520.91
2019-04-03T23:30:49.356Z,101525.86
2019-04-03T23:33:19.970Z,101526.34
2019-04-03T23:35:51.135Z,101524.77
2019-04-03T23:38:22.216Z,101522.59
2019-04-03T23:40:52.948Z,101519.97
2019-04-03T23:43:24.639Z,101518.23
2019-04-03T23:45:55.498Z,101524.00
2019-04-03T23:48:26.150Z,101517.22
2019-04-03T23:50:57.004Z,101514.53
2019-04-03T23:53:27.756Z,101508.16
2019-04-03T23:55:58.493Z,101501.48
2019-04-03T23:58:29.044Z,101510.95
